sensor_id;sensor_type;location;lat;lon;timestamp;temperature;humidity
1107;DHT22;540;49.448;8.612;2023-06-19T00:00:14;24.70;48.30
1107;DHT22;540;49.448;8.612;2023-06-19T00:02:43;24.60;48.20
1107;DHT22;540;49.448;8.612;2023-06-19T00:05:12;24.50;51.10
1107;DHT22;540;49.448;8.612;2023-06-19T00:07:40;24.60;52.20
1107;DHT22;540;49.448;8.612;2023-06-19T00:10:08;24.50;50.10
1107;DHT22;540;49.448;8.612;2023-06-19T00:12:36;24.50;49.80
1107;DHT22;540;49.448;8.612;2023-06-19T00:15:06;24.60;49.50
1107;DHT22;540;49.448;8.612;2023-06-19T00:17:36;24.60;48.70
1107;DHT22;540;49.448;8.612;2023-06-19T00:20:06;24.70;48.50
1107;DHT22;540;49.448;8.612;2023-06-19T00:22:34;24.60;48.40
1107;DHT22;540;49.448;8.612;2023-06-19T00:25:02;24.40;48.40
1107;DHT22;540;49.448;8.612;2023-06-19T00:27:30;24.50;49.00
1107;DHT22;540;49.448;8.612;2023-06-19T00:29:58;24.50;48.50
1107;DHT22;540;49.448;8.612;2023-06-19T00:32:30;24.40;48.80
1107;DHT22;540;49.448;8.612;2023-06-19T00:34:58;24.30;49.00
1107;DHT22;540;49.448;8.612;2023-06-19T00:37:28;24.30;48.90
1107;DHT22;540;49.448;8.612;2023-06-19T00:40:00;24.20;49.00
1107;DHT22;540;49.448;8.612;2023-06-19T00:42:28;24.10;49.20
1107;DHT22;540;49.448;8.612;2023-06-19T00:44:56;24.10;49.20
1107;DHT22;540;49.448;8.612;2023-06-19T00:47:24;24.00;49.20
1107;DHT22;540;49.448;8.612;2023-06-19T00:49:53;24.00;49.40
1107;DHT22;540;49.448;8.612;2023-06-19T00:52:21;24.00;49.40
1107;DHT22;540;49.448;8.612;2023-06-19T00:54:49;23.90;49.60
1107;DHT22;540;49.448;8.612;2023-06-19T00:57:17;23.90;50.00
1107;DHT22;540;49.448;8.612;2023-06-19T00:59:45;24.00;50.40
1107;DHT22;540;49.448;8.612;2023-06-19T01:02:13;23.90;51.20
1107;DHT22;540;49.448;8.612;2023-06-19T01:04:41;23.70;51.30
1107;DHT22;540;49.448;8.612;2023-06-19T01:07:12;23.60;51.90
1107;DHT22;540;49.448;8.612;2023-06-19T01:09:46;23.50;52.30
1107;DHT22;540;49.448;8.612;2023-06-19T01:12:19;23.50;52.90
1107;DHT22;540;49.448;8.612;2023-06-19T01:14:54;23.50;53.50
1107;DHT22;540;49.448;8.612;2023-06-19T01:17:22;23.40;54.20
1107;DHT22;540;49.448;8.612;2023-06-19T01:19:51;23.30;54.80
1107;DHT22;540;49.448;8.612;2023-06-19T01:22:25;23.30;55.40
1107;DHT22;540;49.448;8.612;2023-06-19T01:24:53;23.20;56.40
1107;DHT22;540;49.448;8.612;2023-06-19T01:27:21;23.20;57.00
1107;DHT22;540;49.448;8.612;2023-06-19T01:29:50;23.20;57.60
1107;DHT22;540;49.448;8.612;2023-06-19T01:32:22;23.20;58.10
1107;DHT22;540;49.448;8.612;2023-06-19T01:34:54;23.20;58.60
1107;DHT22;540;49.448;8.612;2023-06-19T01:37:26;23.20;59.00
1107;DHT22;540;49.448;8.612;2023-06-19T01:39:56;23.20;59.20
1107;DHT22;540;49.448;8.612;2023-06-19T01:42:25;23.20;59.50
1107;DHT22;540;49.448;8.612;2023-06-19T01:44:54;23.20;59.50
1107;DHT22;540;49.448;8.612;2023-06-19T01:47:22;23.20;59.60
1107;DHT22;540;49.448;8.612;2023-06-19T01:49:50;23.20;59.80
1107;DHT22;540;49.448;8.612;2023-06-19T01:52:18;23.10;60.20
1107;DHT22;540;49.448;8.612;2023-06-19T01:54:47;23.00;60.50
1107;DHT22;540;49.448;8.612;2023-06-19T01:57:15;23.10;60.80
1107;DHT22;540;49.448;8.612;2023-06-19T01:59:43;23.00;60.70
1107;DHT22;540;49.448;8.612;2023-06-19T02:02:11;23.00;61.00
1107;DHT22;540;49.448;8.612;2023-06-19T02:04:39;23.00;61.20
1107;DHT22;540;49.448;8.612;2023-06-19T02:07:07;23.00;60.90
1107;DHT22;540;49.448;8.612;2023-06-19T02:09:35;23.10;60.70
1107;DHT22;540;49.448;8.612;2023-06-19T02:12:05;22.90;60.20
1107;DHT22;540;49.448;8.612;2023-06-19T02:14:33;23.20;60.40
1107;DHT22;540;49.448;8.612;2023-06-19T02:17:01;23.20;60.60
1107;DHT22;540;49.448;8.612;2023-06-19T02:19:29;23.20;60.50
1107;DHT22;540;49.448;8.612;2023-06-19T02:21:57;23.40;60.50
1107;DHT22;540;49.448;8.612;2023-06-19T02:24:25;23.30;60.10
1107;DHT22;540;49.448;8.612;2023-06-19T02:26:53;23.30;60.50
1107;DHT22;540;49.448;8.612;2023-06-19T02:29:22;23.40;60.70
1107;DHT22;540;49.448;8.612;2023-06-19T02:31:50;23.40;60.60
1107;DHT22;540;49.448;8.612;2023-06-19T02:34:18;23.50;60.70
1107;DHT22;540;49.448;8.612;2023-06-19T02:36:46;23.40;61.10
1107;DHT22;540;49.448;8.612;2023-06-19T02:39:14;23.40;61.20
1107;DHT22;540;49.448;8.612;2023-06-19T02:41:42;23.60;61.60
1107;DHT22;540;49.448;8.612;2023-06-19T02:44:12;23.50;61.80
1107;DHT22;540;49.448;8.612;2023-06-19T02:46:41;23.50;62.20
1107;DHT22;540;49.448;8.612;2023-06-19T02:49:09;23.50;62.90
1107;DHT22;540;49.448;8.612;2023-06-19T02:51:37;23.40;63.70
1107;DHT22;540;49.448;8.612;2023-06-19T02:54:08;23.40;64.80
1107;DHT22;540;49.448;8.612;2023-06-19T02:56:35;23.40;65.70
1107;DHT22;540;49.448;8.612;2023-06-19T02:59:03;23.30;66.50
1107;DHT22;540;49.448;8.612;2023-06-19T03:01:31;23.30;67.10
1107;DHT22;540;49.448;8.612;2023-06-19T03:04:02;23.20;67.50
1107;DHT22;540;49.448;8.612;2023-06-19T03:06:30;23.20;68.10
1107;DHT22;540;49.448;8.612;2023-06-19T03:08:59;23.20;69.10
1107;DHT22;540;49.448;8.612;2023-06-19T03:11:27;23.00;70.50
1107;DHT22;540;49.448;8.612;2023-06-19T03:13:56;22.70;72.20
1107;DHT22;540;49.448;8.612;2023-06-19T03:16:24;22.60;74.70
1107;DHT22;540;49.448;8.612;2023-06-19T03:18:52;22.90;77.20
1107;DHT22;540;49.448;8.612;2023-06-19T03:21:21;22.60;78.30
1107;DHT22;540;49.448;8.612;2023-06-19T03:23:49;22.50;79.50
1107;DHT22;540;49.448;8.612;2023-06-19T03:26:18;22.50;80.80
1107;DHT22;540;49.448;8.612;2023-06-19T03:28:46;22.40;82.40
1107;DHT22;540;49.448;8.612;2023-06-19T03:31:15;21.90;83.60
1107;DHT22;540;49.448;8.612;2023-06-19T03:33:43;22.40;85.50
1107;DHT22;540;49.448;8.612;2023-06-19T03:36:10;22.10;86.80
1107;DHT22;540;49.448;8.612;2023-06-19T03:38:40;22.00;88.30
1107;DHT22;540;49.448;8.612;2023-06-19T03:41:08;21.60;88.20
1107;DHT22;540;49.448;8.612;2023-06-19T03:43:36;22.10;89.30
1107;DHT22;540;49.448;8.612;2023-06-19T03:46:04;22.10;89.80
1107;DHT22;540;49.448;8.612;2023-06-19T03:48:32;22.10;90.10
1107;DHT22;540;49.448;8.612;2023-06-19T03:51:00;22.00;90.30
1107;DHT22;540;49.448;8.612;2023-06-19T03:53:28;21.90;90.70
1107;DHT22;540;49.448;8.612;2023-06-19T03:55:57;22.00;90.90
1107;DHT22;540;49.448;8.612;2023-06-19T03:58:25;22.00;91.00
1107;DHT22;540;49.448;8.612;2023-06-19T04:00:52;21.90;91.10
1107;DHT22;540;49.448;8.612;2023-06-19T04:03:20;21.90;91.30
1107;DHT22;540;49.448;8.612;2023-06-19T04:05:49;21.90;91.30
1107;DHT22;540;49.448;8.612;2023-06-19T04:08:17;22.00;91.50
1107;DHT22;540;49.448;8.612;2023-06-19T04:10:45;22.00;91.40
1107;DHT22;540;49.448;8.612;2023-06-19T04:13:14;22.00;91.40
1107;DHT22;540;49.448;8.612;2023-06-19T04:15:43;22.10;91.50
1107;DHT22;540;49.448;8.612;2023-06-19T04:18:15;22.00;91.50
1107;DHT22;540;49.448;8.612;2023-06-19T04:20:43;22.00;91.60
1107;DHT22;540;49.448;8.612;2023-06-19T04:23:11;21.90;91.80
1107;DHT22;540;49.448;8.612;2023-06-19T04:25:39;22.00;91.80
1107;DHT22;540;49.448;8.612;2023-06-19T04:28:07;22.00;91.90
1107;DHT22;540;49.448;8.612;2023-06-19T04:30:36;22.00;92.10
1107;DHT22;540;49.448;8.612;2023-06-19T04:33:05;21.80;92.00
1107;DHT22;540;49.448;8.612;2023-06-19T04:35:35;22.00;92.10
1107;DHT22;540;49.448;8.612;2023-06-19T04:38:07;22.10;92.20
1107;DHT22;540;49.448;8.612;2023-06-19T04:40:35;21.90;92.10
1107;DHT22;540;49.448;8.612;2023-06-19T04:43:03;22.00;92.40
1107;DHT22;540;49.448;8.612;2023-06-19T04:45:32;22.00;91.90
1107;DHT22;540;49.448;8.612;2023-06-19T04:48:01;22.10;91.60
1107;DHT22;540;49.448;8.612;2023-06-19T04:50:30;22.30;91.20
1107;DHT22;540;49.448;8.612;2023-06-19T04:52:58;22.50;91.00
1107;DHT22;540;49.448;8.612;2023-06-19T04:55:26;22.50;90.10
1107;DHT22;540;49.448;8.612;2023-06-19T04:57:54;22.60;89.10
1107;DHT22;540;49.448;8.612;2023-06-19T05:00:22;22.70;88.10
1107;DHT22;540;49.448;8.612;2023-06-19T05:02:51;22.70;88.60
1107;DHT22;540;49.448;8.612;2023-06-19T05:05:29;22.60;89.00
1107;DHT22;540;49.448;8.612;2023-06-19T05:07:57;22.60;88.60
1107;DHT22;540;49.448;8.612;2023-06-19T05:10:25;22.70;88.50
1107;DHT22;540;49.448;8.612;2023-06-19T05:12:53;22.70;88.20
1107;DHT22;540;49.448;8.612;2023-06-19T05:15:21;22.80;87.60
1107;DHT22;540;49.448;8.612;2023-06-19T05:17:49;22.80;86.60
1107;DHT22;540;49.448;8.612;2023-06-19T05:20:18;23.10;85.70
1107;DHT22;540;49.448;8.612;2023-06-19T05:22:47;23.60;82.70
1107;DHT22;540;49.448;8.612;2023-06-19T05:25:15;24.10;78.50
1107;DHT22;540;49.448;8.612;2023-06-19T05:27:43;24.30;76.40
1107;DHT22;540;49.448;8.612;2023-06-19T05:30:12;24.60;74.70
1107;DHT22;540;49.448;8.612;2023-06-19T05:32:40;25.10;72.40
1107;DHT22;540;49.448;8.612;2023-06-19T05:35:08;25.30;69.80
1107;DHT22;540;49.448;8.612;2023-06-19T05:37:39;25.50;68.50
1107;DHT22;540;49.448;8.612;2023-06-19T05:40:11;25.50;68.10
1107;DHT22;540;49.448;8.612;2023-06-19T05:42:39;25.70;67.30
1107;DHT22;540;49.448;8.612;2023-06-19T05:45:07;25.90;66.00
1107;DHT22;540;49.448;8.612;2023-06-19T05:47:36;25.70;66.50
1107;DHT22;540;49.448;8.612;2023-06-19T05:50:04;24.90;69.80
1107;DHT22;540;49.448;8.612;2023-06-19T05:52:32;24.40;73.40
1107;DHT22;540;49.448;8.612;2023-06-19T05:55:00;24.20;75.00
1107;DHT22;540;49.448;8.612;2023-06-19T05:57:30;24.20;76.30
1107;DHT22;540;49.448;8.612;2023-06-19T06:00:08;24.30;76.30
1107;DHT22;540;49.448;8.612;2023-06-19T06:02:42;24.40;75.80
1107;DHT22;540;49.448;8.612;2023-06-19T06:05:17;24.60;75.30
1107;DHT22;540;49.448;8.612;2023-06-19T06:07:47;24.70;74.90
1107;DHT22;540;49.448;8.612;2023-06-19T06:10:17;25.90;69.80
1107;DHT22;540;49.448;8.612;2023-06-19T06:12:47;27.10;63.20
1107;DHT22;540;49.448;8.612;2023-06-19T06:15:15;27.80;59.00
1107;DHT22;540;49.448;8.612;2023-06-19T06:17:44;28.50;56.90
1107;DHT22;540;49.448;8.612;2023-06-19T06:20:13;28.70;55.80
1107;DHT22;540;49.448;8.612;2023-06-19T06:22:42;29.10;54.40
1107;DHT22;540;49.448;8.612;2023-06-19T06:25:10;29.60;53.10
1107;DHT22;540;49.448;8.612;2023-06-19T06:27:40;29.80;52.20
1107;DHT22;540;49.448;8.612;2023-06-19T06:30:11;30.00;51.30
1107;DHT22;540;49.448;8.612;2023-06-19T06:32:39;30.30;50.80
1107;DHT22;540;49.448;8.612;2023-06-19T06:35:07;30.70;49.90
1107;DHT22;540;49.448;8.612;2023-06-19T06:37:35;31.00;48.50
1107;DHT22;540;49.448;8.612;2023-06-19T06:40:04;31.00;48.00
1107;DHT22;540;49.448;8.612;2023-06-19T06:42:35;30.80;48.60
1107;DHT22;540;49.448;8.612;2023-06-19T06:45:04;31.30;47.60
1107;DHT22;540;49.448;8.612;2023-06-19T06:47:34;31.40;47.40
1107;DHT22;540;49.448;8.612;2023-06-19T06:50:03;31.30;47.30
1107;DHT22;540;49.448;8.612;2023-06-19T06:52:31;31.50;46.60
1107;DHT22;540;49.448;8.612;2023-06-19T06:55:01;31.10;47.60
1107;DHT22;540;49.448;8.612;2023-06-19T06:57:29;31.20;47.20
1107;DHT22;540;49.448;8.612;2023-06-19T06:59:57;31.80;46.20
1107;DHT22;540;49.448;8.612;2023-06-19T07:02:25;32.10;45.50
1107;DHT22;540;49.448;8.612;2023-06-19T07:04:55;32.10;45.20
1107;DHT22;540;49.448;8.612;2023-06-19T07:07:23;32.20;44.60
1107;DHT22;540;49.448;8.612;2023-06-19T07:09:50;32.40;44.60
1107;DHT22;540;49.448;8.612;2023-06-19T07:12:18;32.20;44.50
1107;DHT22;540;49.448;8.612;2023-06-19T07:14:46;31.90;45.30
1107;DHT22;540;49.448;8.612;2023-06-19T07:17:14;31.90;45.40
1107;DHT22;540;49.448;8.612;2023-06-19T07:19:47;32.00;44.80
1107;DHT22;540;49.448;8.612;2023-06-19T07:22:17;31.90;45.40
1107;DHT22;540;49.448;8.612;2023-06-19T07:24:45;32.50;44.60
1107;DHT22;540;49.448;8.612;2023-06-19T07:27:12;32.60;44.10
1107;DHT22;540;49.448;8.612;2023-06-19T07:29:40;33.00;43.20
1107;DHT22;540;49.448;8.612;2023-06-19T07:32:08;32.90;43.10
1107;DHT22;540;49.448;8.612;2023-06-19T07:34:37;33.10;42.80
1107;DHT22;540;49.448;8.612;2023-06-19T07:37:05;32.60;43.50
1107;DHT22;540;49.448;8.612;2023-06-19T07:39:34;31.90;44.90
1107;DHT22;540;49.448;8.612;2023-06-19T07:42:02;31.40;46.30
1107;DHT22;540;49.448;8.612;2023-06-19T07:44:30;30.50;48.20
1107;DHT22;540;49.448;8.612;2023-06-19T07:46:58;29.20;51.00
1107;DHT22;540;49.448;8.612;2023-06-19T07:49:26;29.10;52.40
1107;DHT22;540;49.448;8.612;2023-06-19T07:51:54;28.70;53.20
1107;DHT22;540;49.448;8.612;2023-06-19T07:54:22;28.20;54.90
1107;DHT22;540;49.448;8.612;2023-06-19T07:56:51;28.10;55.60
1107;DHT22;540;49.448;8.612;2023-06-19T07:59:19;27.70;55.80
1107;DHT22;540;49.448;8.612;2023-06-19T08:01:48;27.40;56.80
1107;DHT22;540;49.448;8.612;2023-06-19T08:04:19;27.00;58.20
1107;DHT22;540;49.448;8.612;2023-06-19T08:06:49;26.70;59.40
1107;DHT22;540;49.448;8.612;2023-06-19T08:09:18;26.40;61.50
1107;DHT22;540;49.448;8.612;2023-06-19T08:11:48;26.20;63.10
1107;DHT22;540;49.448;8.612;2023-06-19T08:14:20;26.00;64.70
1107;DHT22;540;49.448;8.612;2023-06-19T08:16:50;25.80;66.90
1107;DHT22;540;49.448;8.612;2023-06-19T08:19:20;25.60;68.30
1107;DHT22;540;49.448;8.612;2023-06-19T08:21:50;25.50;69.30
1107;DHT22;540;49.448;8.612;2023-06-19T08:24:20;25.50;70.80
1107;DHT22;540;49.448;8.612;2023-06-19T08:26:50;25.50;70.90
1107;DHT22;540;49.448;8.612;2023-06-19T08:29:22;25.60;71.10
1107;DHT22;540;49.448;8.612;2023-06-19T08:31:52;25.80;69.20
1107;DHT22;540;49.448;8.612;2023-06-19T08:34:22;26.40;66.70
1107;DHT22;540;49.448;8.612;2023-06-19T08:36:53;26.90;64.20
1107;DHT22;540;49.448;8.612;2023-06-19T08:39:23;27.10;64.80
1107;DHT22;540;49.448;8.612;2023-06-19T08:41:55;27.50;62.70
1107;DHT22;540;49.448;8.612;2023-06-19T08:44:27;28.20;59.00
1107;DHT22;540;49.448;8.612;2023-06-19T08:46:58;28.30;58.10
1107;DHT22;540;49.448;8.612;2023-06-19T08:49:30;29.20;56.40
1107;DHT22;540;49.448;8.612;2023-06-19T08:52:01;29.60;54.30
1107;DHT22;540;49.448;8.612;2023-06-19T08:54:32;29.90;52.60
1107;DHT22;540;49.448;8.612;2023-06-19T08:57:02;29.40;53.00
1107;DHT22;540;49.448;8.612;2023-06-19T08:59:31;29.20;53.80
1107;DHT22;540;49.448;8.612;2023-06-19T09:02:00;29.90;53.10
1107;DHT22;540;49.448;8.612;2023-06-19T09:04:28;30.50;51.60
1107;DHT22;540;49.448;8.612;2023-06-19T09:07:00;30.70;50.70
1107;DHT22;540;49.448;8.612;2023-06-19T09:09:29;30.10;51.50
1107;DHT22;540;49.448;8.612;2023-06-19T09:12:03;29.60;52.80
1107;DHT22;540;49.448;8.612;2023-06-19T09:14:34;29.10;53.90
1107;DHT22;540;49.448;8.612;2023-06-19T09:17:03;28.50;55.00
1107;DHT22;540;49.448;8.612;2023-06-19T09:19:32;28.40;56.30
1107;DHT22;540;49.448;8.612;2023-06-19T09:22:02;29.20;54.50
1107;DHT22;540;49.448;8.612;2023-06-19T09:24:34;30.00;52.30
1107;DHT22;540;49.448;8.612;2023-06-19T09:27:07;30.70;50.80
1107;DHT22;540;49.448;8.612;2023-06-19T09:29:37;31.10;49.30
1107;DHT22;540;49.448;8.612;2023-06-19T09:32:16;31.70;48.40
1107;DHT22;540;49.448;8.612;2023-06-19T09:34:45;32.00;47.20
1107;DHT22;540;49.448;8.612;2023-06-19T09:37:15;32.20;46.60
1107;DHT22;540;49.448;8.612;2023-06-19T09:39:46;32.20;46.20
1107;DHT22;540;49.448;8.612;2023-06-19T09:42:17;31.70;46.90
1107;DHT22;540;49.448;8.612;2023-06-19T09:44:49;31.50;47.90
1107;DHT22;540;49.448;8.612;2023-06-19T09:47:22;32.00;46.70
1107;DHT22;540;49.448;8.612;2023-06-19T09:49:54;32.50;45.70
1107;DHT22;540;49.448;8.612;2023-06-19T09:52:23;32.10;46.50
1107;DHT22;540;49.448;8.612;2023-06-19T09:54:53;32.30;46.10
1107;DHT22;540;49.448;8.612;2023-06-19T09:57:21;32.60;45.60
1107;DHT22;540;49.448;8.612;2023-06-19T09:59:53;32.70;45.20
1107;DHT22;540;49.448;8.612;2023-06-19T10:02:26;32.80;44.90
1107;DHT22;540;49.448;8.612;2023-06-19T10:04:55;32.30;45.20
1107;DHT22;540;49.448;8.612;2023-06-19T10:07:26;32.20;46.20
1107;DHT22;540;49.448;8.612;2023-06-19T10:10:01;32.20;46.10
1107;DHT22;540;49.448;8.612;2023-06-19T10:12:35;31.70;46.70
1107;DHT22;540;49.448;8.612;2023-06-19T10:15:15;31.40;47.60
1107;DHT22;540;49.448;8.612;2023-06-19T10:17:46;31.70;47.00
1107;DHT22;540;49.448;8.612;2023-06-19T10:20:23;32.20;46.10
1107;DHT22;540;49.448;8.612;2023-06-19T10:22:56;32.30;46.10
1107;DHT22;540;49.448;8.612;2023-06-19T10:25:28;32.30;46.10
1107;DHT22;540;49.448;8.612;2023-06-19T10:27:58;32.20;45.60
1107;DHT22;540;49.448;8.612;2023-06-19T10:30:30;32.20;45.60
1107;DHT22;540;49.448;8.612;2023-06-19T10:33:04;32.30;44.70
1107;DHT22;540;49.448;8.612;2023-06-19T10:35:38;32.50;44.70
1107;DHT22;540;49.448;8.612;2023-06-19T10:38:07;33.00;44.20
1107;DHT22;540;49.448;8.612;2023-06-19T10:40:37;33.00;43.70
1107;DHT22;540;49.448;8.612;2023-06-19T10:43:05;32.50;44.80
1107;DHT22;540;49.448;8.612;2023-06-19T10:45:34;32.60;44.70
1107;DHT22;540;49.448;8.612;2023-06-19T10:48:04;32.30;44.80
1107;DHT22;540;49.448;8.612;2023-06-19T10:50:38;32.40;44.60
1107;DHT22;540;49.448;8.612;2023-06-19T10:53:10;32.10;44.90
1107;DHT22;540;49.448;8.612;2023-06-19T10:55:38;32.20;45.40
1107;DHT22;540;49.448;8.612;2023-06-19T10:58:06;32.10;45.00
1107;DHT22;540;49.448;8.612;2023-06-19T11:00:36;31.90;45.20
1107;DHT22;540;49.448;8.612;2023-06-19T11:03:04;32.20;45.40
1107;DHT22;540;49.448;8.612;2023-06-19T11:05:32;32.40;44.70
1107;DHT22;540;49.448;8.612;2023-06-19T11:08:00;32.60;44.00
1107;DHT22;540;49.448;8.612;2023-06-19T11:10:29;32.40;44.30
1107;DHT22;540;49.448;8.612;2023-06-19T11:12:58;32.30;44.90
1107;DHT22;540;49.448;8.612;2023-06-19T11:15:33;32.40;44.80
1107;DHT22;540;49.448;8.612;2023-06-19T11:18:05;32.90;44.10
1107;DHT22;540;49.448;8.612;2023-06-19T11:20:43;33.00;43.40
1107;DHT22;540;49.448;8.612;2023-06-19T11:23:12;33.00;43.20
1107;DHT22;540;49.448;8.612;2023-06-19T11:25:42;32.90;43.40
1107;DHT22;540;49.448;8.612;2023-06-19T11:28:12;32.70;43.20
1107;DHT22;540;49.448;8.612;2023-06-19T11:30:42;32.60;43.20
1107;DHT22;540;49.448;8.612;2023-06-19T11:33:19;32.70;43.00
1107;DHT22;540;49.448;8.612;2023-06-19T11:35:49;32.40;44.00
1107;DHT22;540;49.448;8.612;2023-06-19T11:38:19;32.10;44.40
1107;DHT22;540;49.448;8.612;2023-06-19T11:40:48;32.10;44.40
1107;DHT22;540;49.448;8.612;2023-06-19T11:43:25;32.10;44.40
1107;DHT22;540;49.448;8.612;2023-06-19T11:45:59;32.10;44.40
1107;DHT22;540;49.448;8.612;2023-06-19T11:48:36;32.30;44.30
1107;DHT22;540;49.448;8.612;2023-06-19T11:51:07;32.50;43.70
1107;DHT22;540;49.448;8.612;2023-06-19T11:53:36;33.20;42.90
1107;DHT22;540;49.448;8.612;2023-06-19T11:56:04;33.10;41.70
1107;DHT22;540;49.448;8.612;2023-06-19T11:58:32;33.10;41.30
1107;DHT22;540;49.448;8.612;2023-06-19T12:01:07;33.30;41.40
1107;DHT22;540;49.448;8.612;2023-06-19T12:03:49;33.20;40.80
1107;DHT22;540;49.448;8.612;2023-06-19T12:06:19;33.20;40.90
1107;DHT22;540;49.448;8.612;2023-06-19T12:08:49;33.40;41.20
1107;DHT22;540;49.448;8.612;2023-06-19T12:11:19;33.00;41.30
1107;DHT22;540;49.448;8.612;2023-06-19T12:13:57;32.70;41.70
1107;DHT22;540;49.448;8.612;2023-06-19T12:16:27;32.40;42.30
1107;DHT22;540;49.448;8.612;2023-06-19T12:19:01;32.20;42.90
1107;DHT22;540;49.448;8.612;2023-06-19T12:21:29;32.10;43.20
1107;DHT22;540;49.448;8.612;2023-06-19T12:24:05;31.90;43.50
1107;DHT22;540;49.448;8.612;2023-06-19T12:26:35;31.90;43.90
1107;DHT22;540;49.448;8.612;2023-06-19T12:29:04;31.50;44.60
1107;DHT22;540;49.448;8.612;2023-06-19T12:31:34;31.50;44.40
1107;DHT22;540;49.448;8.612;2023-06-19T12:34:05;31.30;45.00
1107;DHT22;540;49.448;8.612;2023-06-19T12:36:54;31.20;44.90
1107;DHT22;540;49.448;8.612;2023-06-19T12:39:24;31.20;45.40
1107;DHT22;540;49.448;8.612;2023-06-19T12:41:54;31.40;45.10
1107;DHT22;540;49.448;8.612;2023-06-19T12:44:22;31.50;44.80
1107;DHT22;540;49.448;8.612;2023-06-19T12:46:51;31.60;44.50
1107;DHT22;540;49.448;8.612;2023-06-19T12:49:21;31.80;44.60
1107;DHT22;540;49.448;8.612;2023-06-19T12:51:49;31.60;44.50
1107;DHT22;540;49.448;8.612;2023-06-19T12:54:19;31.70;44.40
1107;DHT22;540;49.448;8.612;2023-06-19T12:56:47;32.00;44.10
1107;DHT22;540;49.448;8.612;2023-06-19T12:59:15;31.80;43.90
1107;DHT22;540;49.448;8.612;2023-06-19T13:01:44;31.80;44.70
1107;DHT22;540;49.448;8.612;2023-06-19T13:04:13;31.70;44.90
1107;DHT22;540;49.448;8.612;2023-06-19T13:06:43;31.40;45.20
1107;DHT22;540;49.448;8.612;2023-06-19T13:09:12;31.20;45.50
1107;DHT22;540;49.448;8.612;2023-06-19T13:11:40;31.30;45.50
1107;DHT22;540;49.448;8.612;2023-06-19T13:14:08;31.30;45.40
1107;DHT22;540;49.448;8.612;2023-06-19T13:16:36;31.50;45.20
1107;DHT22;540;49.448;8.612;2023-06-19T13:19:07;31.60;45.10
1107;DHT22;540;49.448;8.612;2023-06-19T13:21:38;31.40;44.70
1107;DHT22;540;49.448;8.612;2023-06-19T13:24:08;31.60;45.00
1107;DHT22;540;49.448;8.612;2023-06-19T13:26:36;31.70;44.60
1107;DHT22;540;49.448;8.612;2023-06-19T13:29:05;31.70;44.50
1107;DHT22;540;49.448;8.612;2023-06-19T13:31:33;31.90;43.50
1107;DHT22;540;49.448;8.612;2023-06-19T13:34:01;32.00;42.80
1107;DHT22;540;49.448;8.612;2023-06-19T13:36:30;32.30;43.00
1107;DHT22;540;49.448;8.612;2023-06-19T13:38:58;32.50;42.40
1107;DHT22;540;49.448;8.612;2023-06-19T13:41:28;32.70;42.60
1107;DHT22;540;49.448;8.612;2023-06-19T13:43:58;32.80;42.20
1107;DHT22;540;49.448;8.612;2023-06-19T13:46:26;32.90;42.00
1107;DHT22;540;49.448;8.612;2023-06-19T13:48:55;33.10;41.60
1107;DHT22;540;49.448;8.612;2023-06-19T13:51:23;32.60;41.90
1107;DHT22;540;49.448;8.612;2023-06-19T13:53:51;32.20;42.50
1107;DHT22;540;49.448;8.612;2023-06-19T13:56:21;31.80;43.00
1107;DHT22;540;49.448;8.612;2023-06-19T13:58:51;31.70;43.50
1107;DHT22;540;49.448;8.612;2023-06-19T14:01:20;31.70;43.40
1107;DHT22;540;49.448;8.612;2023-06-19T14:03:48;31.50;44.10
1107;DHT22;540;49.448;8.612;2023-06-19T14:06:17;31.70;44.40
1107;DHT22;540;49.448;8.612;2023-06-19T14:08:46;31.70;44.00
1107;DHT22;540;49.448;8.612;2023-06-19T14:11:14;31.80;44.30
1107;DHT22;540;49.448;8.612;2023-06-19T14:13:42;31.50;44.30
1107;DHT22;540;49.448;8.612;2023-06-19T14:16:12;31.40;44.50
1107;DHT22;540;49.448;8.612;2023-06-19T14:18:40;31.20;44.80
1107;DHT22;540;49.448;8.612;2023-06-19T14:21:09;31.20;45.00
1107;DHT22;540;49.448;8.612;2023-06-19T14:23:39;31.30;44.70
1107;DHT22;540;49.448;8.612;2023-06-19T14:26:10;31.30;45.20
1107;DHT22;540;49.448;8.612;2023-06-19T14:28:40;31.40;44.80
1107;DHT22;540;49.448;8.612;2023-06-19T14:31:09;31.80;44.30
1107;DHT22;540;49.448;8.612;2023-06-19T14:33:39;31.80;44.30
1107;DHT22;540;49.448;8.612;2023-06-19T14:36:07;31.80;44.00
1107;DHT22;540;49.448;8.612;2023-06-19T14:38:35;31.80;43.70
1107;DHT22;540;49.448;8.612;2023-06-19T14:41:03;31.80;43.80
1107;DHT22;540;49.448;8.612;2023-06-19T14:43:30;31.70;43.80
1107;DHT22;540;49.448;8.612;2023-06-19T14:46:00;31.50;44.20
1107;DHT22;540;49.448;8.612;2023-06-19T14:48:28;31.40;44.20
1107;DHT22;540;49.448;8.612;2023-06-19T14:51:00;31.50;44.00
1107;DHT22;540;49.448;8.612;2023-06-19T14:53:31;31.20;44.30
1107;DHT22;540;49.448;8.612;2023-06-19T14:55:59;31.00;44.70
1107;DHT22;540;49.448;8.612;2023-06-19T14:58:27;31.20;44.80
1107;DHT22;540;49.448;8.612;2023-06-19T15:00:55;31.30;44.70
1107;DHT22;540;49.448;8.612;2023-06-19T15:03:24;31.50;44.50
1107;DHT22;540;49.448;8.612;2023-06-19T15:05:53;31.30;44.80
1107;DHT22;540;49.448;8.612;2023-06-19T15:08:28;31.30;45.30
1107;DHT22;540;49.448;8.612;2023-06-19T15:10:59;31.00;45.40
1107;DHT22;540;49.448;8.612;2023-06-19T15:13:28;30.80;46.00
1107;DHT22;540;49.448;8.612;2023-06-19T15:15:56;30.70;46.60
1107;DHT22;540;49.448;8.612;2023-06-19T15:18:26;30.70;46.70
1107;DHT22;540;49.448;8.612;2023-06-19T15:20:59;30.80;46.40
1107;DHT22;540;49.448;8.612;2023-06-19T15:23:42;30.80;46.30
1107;DHT22;540;49.448;8.612;2023-06-19T15:26:10;30.90;46.30
1107;DHT22;540;49.448;8.612;2023-06-19T15:28:38;30.80;46.10
1107;DHT22;540;49.448;8.612;2023-06-19T15:31:08;30.80;46.40
1107;DHT22;540;49.448;8.612;2023-06-19T15:33:36;30.70;47.20
1107;DHT22;540;49.448;8.612;2023-06-19T15:36:05;30.70;47.60
1107;DHT22;540;49.448;8.612;2023-06-19T15:38:33;30.70;47.50
1107;DHT22;540;49.448;8.612;2023-06-19T15:41:03;30.60;47.10
1107;DHT22;540;49.448;8.612;2023-06-19T15:43:30;30.80;46.80
1107;DHT22;540;49.448;8.612;2023-06-19T15:45:58;30.80;46.50
1107;DHT22;540;49.448;8.612;2023-06-19T15:48:26;30.80;46.70
1107;DHT22;540;49.448;8.612;2023-06-19T15:50:54;30.70;46.70
1107;DHT22;540;49.448;8.612;2023-06-19T15:53:22;30.70;46.60
1107;DHT22;540;49.448;8.612;2023-06-19T15:55:50;30.60;47.10
1107;DHT22;540;49.448;8.612;2023-06-19T15:58:19;30.60;47.80
1107;DHT22;540;49.448;8.612;2023-06-19T16:00:47;30.60;48.20
1107;DHT22;540;49.448;8.612;2023-06-19T16:03:19;30.70;48.00
1107;DHT22;540;49.448;8.612;2023-06-19T16:05:48;30.70;47.50
1107;DHT22;540;49.448;8.612;2023-06-19T16:08:32;30.80;47.40
1107;DHT22;540;49.448;8.612;2023-06-19T16:11:00;30.60;47.90
1107;DHT22;540;49.448;8.612;2023-06-19T16:13:31;30.60;48.10
1107;DHT22;540;49.448;8.612;2023-06-19T16:15:59;30.60;48.30
1107;DHT22;540;49.448;8.612;2023-06-19T16:18:27;30.60;48.30
1107;DHT22;540;49.448;8.612;2023-06-19T16:20:55;30.70;47.40
1107;DHT22;540;49.448;8.612;2023-06-19T16:23:22;30.70;47.40
1107;DHT22;540;49.448;8.612;2023-06-19T16:25:51;30.80;47.50
1107;DHT22;540;49.448;8.612;2023-06-19T16:28:20;30.60;47.50
1107;DHT22;540;49.448;8.612;2023-06-19T16:30:49;30.60;47.50